sensor_id;sensor_type;location;lat;lon;timestamp;P1;durP1;ratioP1;P2;durP2;ratioP2
15381;SDS011;7789;51.364;12.358;2023-02-14T00:01:23;17.53;;;13.87;;
15381;SDS011;7789;51.364;12.358;2023-02-14T00:06:26;21.40;;;15.43;;
15381;SDS011;7789;51.364;12.358;2023-02-14T00:11:30;17.67;;;13.93;;
15381;SDS011;7789;51.364;12.358;2023-02-14T00:16:35;18.03;;;14.30;;
15381;SDS011;7789;51.364;12.358;2023-02-14T00:21:38;17.10;;;13.73;;
15381;SDS011;7789;51.364;12.358;2023-02-14T00:26:42;19.80;;;13.87;;
15381;SDS011;7789;51.364;12.358;2023-02-14T00:31:47;18.00;;;14.53;;
15381;SDS011;7789;51.364;12.358;2023-02-14T00:36:51;19.53;;;15.20;;
15381;SDS011;7789;51.364;12.358;2023-02-14T00:41:55;19.97;;;15.63;;
15381;SDS011;7789;51.364;12.358;2023-02-14T00:46:59;17.60;;;14.57;;
15381;SDS011;7789;51.364;12.358;2023-02-14T00:52:03;19.70;;;15.03;;
15381;SDS011;7789;51.364;12.358;2023-02-14T00:57:06;18.83;;;14.90;;
15381;SDS011;7789;51.364;12.358;2023-02-14T01:02:10;17.83;;;14.63;;
15381;SDS011;7789;51.364;12.358;2023-02-14T01:07:13;19.43;;;15.60;;
15381;SDS011;7789;51.364;12.358;2023-02-14T01:12:17;17.30;;;15.07;;
15381;SDS011;7789;51.364;12.358;2023-02-14T01:17:22;20.70;;;16.47;;
15381;SDS011;7789;51.364;12.358;2023-02-14T01:22:37;18.30;;;14.83;;
15381;SDS011;7789;51.364;12.358;2023-02-14T01:27:40;20.63;;;16.20;;
15381;SDS011;7789;51.364;12.358;2023-02-14T01:32:45;23.00;;;17.27;;
15381;SDS011;7789;51.364;12.358;2023-02-14T01:37:49;21.80;;;16.83;;
15381;SDS011;7789;51.364;12.358;2023-02-14T01:42:52;21.30;;;16.10;;
15381;SDS011;7789;51.364;12.358;2023-02-14T01:47:59;23.47;;;17.20;;
15381;SDS011;7789;51.364;12.358;2023-02-14T01:53:03;23.93;;;17.27;;
15381;SDS011;7789;51.364;12.358;2023-02-14T01:58:12;22.37;;;16.73;;
15381;SDS011;7789;51.364;12.358;2023-02-14T02:03:20;22.53;;;16.63;;
15381;SDS011;7789;51.364;12.358;2023-02-14T02:08:25;22.20;;;16.37;;
15381;SDS011;7789;51.364;12.358;2023-02-14T02:13:28;25.07;;;17.70;;
15381;SDS011;7789;51.364;12.358;2023-02-14T02:18:38;21.63;;;15.63;;
15381;SDS011;7789;51.364;12.358;2023-02-14T02:23:55;21.33;;;16.87;;
15381;SDS011;7789;51.364;12.358;2023-02-14T02:40:43;27.37;;;17.17;;
15381;SDS011;7789;51.364;12.358;2023-02-14T02:45:54;24.03;;;17.17;;
15381;SDS011;7789;51.364;12.358;2023-02-14T02:51:22;24.67;;;17.40;;
15381;SDS011;7789;51.364;12.358;2023-02-14T02:56:53;25.83;;;18.47;;
15381;SDS011;7789;51.364;12.358;2023-02-14T03:02:04;23.63;;;17.43;;
15381;SDS011;7789;51.364;12.358;2023-02-14T03:07:10;23.33;;;16.67;;
15381;SDS011;7789;51.364;12.358;2023-02-14T03:12:43;23.17;;;16.53;;
15381;SDS011;7789;51.364;12.358;2023-02-14T03:18:00;22.60;;;16.30;;
15381;SDS011;7789;51.364;12.358;2023-02-14T03:23:24;21.20;;;16.23;;
15381;SDS011;7789;51.364;12.358;2023-02-14T03:28:32;22.50;;;16.10;;
15381;SDS011;7789;51.364;12.358;2023-02-14T03:33:43;20.03;;;15.47;;
15381;SDS011;7789;51.364;12.358;2023-02-14T03:38:53;19.17;;;15.10;;
15381;SDS011;7789;51.364;12.358;2023-02-14T03:44:05;18.17;;;14.13;;
15381;SDS011;7789;51.364;12.358;2023-02-14T03:49:13;19.27;;;14.53;;
15381;SDS011;7789;51.364;12.358;2023-02-14T03:54:23;17.47;;;13.40;;
15381;SDS011;7789;51.364;12.358;2023-02-14T03:59:28;16.53;;;12.53;;
15381;SDS011;7789;51.364;12.358;2023-02-14T04:04:32;16.80;;;12.77;;
15381;SDS011;7789;51.364;12.358;2023-02-14T04:09:40;16.63;;;12.63;;
15381;SDS011;7789;51.364;12.358;2023-02-14T04:14:43;14.13;;;11.20;;
15381;SDS011;7789;51.364;12.358;2023-02-14T04:19:46;14.23;;;11.57;;
15381;SDS011;7789;51.364;12.358;2023-02-14T04:24:51;16.23;;;12.90;;
15381;SDS011;7789;51.364;12.358;2023-02-14T04:29:54;14.93;;;11.90;;
15381;SDS011;7789;51.364;12.358;2023-02-14T04:34:58;14.33;;;11.87;;
15381;SDS011;7789;51.364;12.358;2023-02-14T04:40:02;15.00;;;12.53;;
15381;SDS011;7789;51.364;12.358;2023-02-14T04:45:07;15.80;;;12.50;;
15381;SDS011;7789;51.364;12.358;2023-02-14T04:50:10;13.70;;;11.47;;
15381;SDS011;7789;51.364;12.358;2023-02-14T04:55:16;14.03;;;11.63;;
15381;SDS011;7789;51.364;12.358;2023-02-14T05:00:19;13.67;;;11.13;;
15381;SDS011;7789;51.364;12.358;2023-02-14T05:05:26;14.40;;;10.87;;
15381;SDS011;7789;51.364;12.358;2023-02-14T05:10:31;13.00;;;10.87;;
15381;SDS011;7789;51.364;12.358;2023-02-14T05:15:34;13.93;;;10.83;;
15381;SDS011;7789;51.364;12.358;2023-02-14T05:20:39;13.73;;;11.43;;
15381;SDS011;7789;51.364;12.358;2023-02-14T05:25:43;13.80;;;11.23;;
15381;SDS011;7789;51.364;12.358;2023-02-14T05:30:49;15.00;;;11.53;;
15381;SDS011;7789;51.364;12.358;2023-02-14T05:35:52;16.57;;;12.20;;
15381;SDS011;7789;51.364;12.358;2023-02-14T05:40:57;11.37;;;9.73;;
15381;SDS011;7789;51.364;12.358;2023-02-14T05:46:01;15.83;;;11.10;;
15381;SDS011;7789;51.364;12.358;2023-02-14T05:51:05;14.33;;;11.27;;
15381;SDS011;7789;51.364;12.358;2023-02-14T05:56:10;12.50;;;10.70;;
15381;SDS011;7789;51.364;12.358;2023-02-14T06:01:14;12.63;;;10.47;;
15381;SDS011;7789;51.364;12.358;2023-02-14T06:06:17;13.47;;;10.67;;
15381;SDS011;7789;51.364;12.358;2023-02-14T06:11:23;11.97;;;10.43;;
15381;SDS011;7789;51.364;12.358;2023-02-14T06:16:26;13.40;;;10.43;;
15381;SDS011;7789;51.364;12.358;2023-02-14T06:21:29;15.33;;;11.53;;
15381;SDS011;7789;51.364;12.358;2023-02-14T06:26:34;13.73;;;11.70;;
15381;SDS011;7789;51.364;12.358;2023-02-14T06:31:37;17.83;;;12.73;;
15381;SDS011;7789;51.364;12.358;2023-02-14T06:36:41;16.00;;;12.97;;
15381;SDS011;7789;51.364;12.358;2023-02-14T06:41:47;16.70;;;13.33;;
15381;SDS011;7789;51.364;12.358;2023-02-14T06:46:51;16.70;;;14.00;;
15381;SDS011;7789;51.364;12.358;2023-02-14T06:51:55;18.77;;;14.27;;
15381;SDS011;7789;51.364;12.358;2023-02-14T06:57:00;15.70;;;12.63;;
15381;SDS011;7789;51.364;12.358;2023-02-14T07:02:04;15.33;;;12.53;;
15381;SDS011;7789;51.364;12.358;2023-02-14T07:07:07;17.23;;;11.63;;
15381;SDS011;7789;51.364;12.358;2023-02-14T07:12:12;17.03;;;12.87;;
15381;SDS011;7789;51.364;12.358;2023-02-14T07:17:15;15.23;;;12.20;;
15381;SDS011;7789;51.364;12.358;2023-02-14T07:22:19;14.07;;;11.40;;
15381;SDS011;7789;51.364;12.358;2023-02-14T07:27:23;15.37;;;11.87;;
15381;SDS011;7789;51.364;12.358;2023-02-14T07:32:27;16.00;;;11.77;;
15381;SDS011;7789;51.364;12.358;2023-02-14T07:37:30;16.30;;;12.33;;
15381;SDS011;7789;51.364;12.358;2023-02-14T07:42:35;15.53;;;12.07;;
15381;SDS011;7789;51.364;12.358;2023-02-14T07:47:39;16.50;;;12.50;;
15381;SDS011;7789;51.364;12.358;2023-02-14T07:52:43;15.67;;;11.63;;
15381;SDS011;7789;51.364;12.358;2023-02-14T07:57:48;14.73;;;11.53;;
15381;SDS011;7789;51.364;12.358;2023-02-14T08:02:51;17.47;;;11.97;;
15381;SDS011;7789;51.364;12.358;2023-02-14T08:07:56;14.23;;;10.93;;
15381;SDS011;7789;51.364;12.358;2023-02-14T08:13:01;14.60;;;10.83;;
15381;SDS011;7789;51.364;12.358;2023-02-14T08:18:04;13.30;;;10.63;;
15381;SDS011;7789;51.364;12.358;2023-02-14T08:23:08;12.47;;;10.97;;
15381;SDS011;7789;51.364;12.358;2023-02-14T08:28:13;13.40;;;10.97;;
15381;SDS011;7789;51.364;12.358;2023-02-14T08:33:16;13.63;;;11.03;;
15381;SDS011;7789;51.364;12.358;2023-02-14T08:38:20;13.00;;;11.03;;
15381;SDS011;7789;51.364;12.358;2023-02-14T08:43:24;12.87;;;9.67;;
15381;SDS011;7789;51.364;12.358;2023-02-14T08:48:28;14.00;;;11.20;;
15381;SDS011;7789;51.364;12.358;2023-02-14T08:53:31;13.87;;;11.10;;
15381;SDS011;7789;51.364;12.358;2023-02-14T08:58:36;13.70;;;11.00;;
15381;SDS011;7789;51.364;12.358;2023-02-14T09:03:40;15.63;;;11.53;;
15381;SDS011;7789;51.364;12.358;2023-02-14T09:08:44;13.97;;;10.87;;
15381;SDS011;7789;51.364;12.358;2023-02-14T09:13:49;12.60;;;10.43;;
15381;SDS011;7789;51.364;12.358;2023-02-14T09:18:54;16.10;;;12.80;;
15381;SDS011;7789;51.364;12.358;2023-02-14T09:23:57;14.50;;;10.83;;
15381;SDS011;7789;51.364;12.358;2023-02-14T09:29:02;13.07;;;10.70;;
15381;SDS011;7789;51.364;12.358;2023-02-14T09:34:05;18.90;;;11.07;;
15381;SDS011;7789;51.364;12.358;2023-02-14T09:39:26;12.10;;;10.80;;
15381;SDS011;7789;51.364;12.358;2023-02-14T09:44:32;13.00;;;10.27;;
15381;SDS011;7789;51.364;12.358;2023-02-14T09:49:38;12.40;;;10.00;;
15381;SDS011;7789;51.364;12.358;2023-02-14T09:54:43;13.43;;;11.17;;
15381;SDS011;7789;51.364;12.358;2023-02-14T09:59:56;13.60;;;11.60;;
15381;SDS011;7789;51.364;12.358;2023-02-14T10:05:09;15.30;;;11.50;;
15381;SDS011;7789;51.364;12.358;2023-02-14T10:10:17;16.73;;;11.27;;
15381;SDS011;7789;51.364;12.358;2023-02-14T10:15:27;16.37;;;12.83;;
15381;SDS011;7789;51.364;12.358;2023-02-14T10:20:34;20.53;;;11.93;;
15381;SDS011;7789;51.364;12.358;2023-02-14T10:25:41;13.80;;;11.80;;
15381;SDS011;7789;51.364;12.358;2023-02-14T10:30:51;13.60;;;10.60;;
15381;SDS011;7789;51.364;12.358;2023-02-14T10:36:04;12.60;;;11.07;;
15381;SDS011;7789;51.364;12.358;2023-02-14T10:41:19;14.07;;;10.23;;
15381;SDS011;7789;51.364;12.358;2023-02-14T10:46:33;15.03;;;12.30;;
15381;SDS011;7789;51.364;12.358;2023-02-14T10:51:42;14.33;;;11.50;;
15381;SDS011;7789;51.364;12.358;2023-02-14T10:56:53;14.23;;;11.53;;
15381;SDS011;7789;51.364;12.358;2023-02-14T11:02:04;14.80;;;12.47;;
15381;SDS011;7789;51.364;12.358;2023-02-14T11:07:12;16.23;;;11.67;;
15381;SDS011;7789;51.364;12.358;2023-02-14T11:12:36;15.43;;;12.23;;
15381;SDS011;7789;51.364;12.358;2023-02-14T11:17:41;13.83;;;11.73;;
15381;SDS011;7789;51.364;12.358;2023-02-14T11:23:08;17.17;;;10.87;;
15381;SDS011;7789;51.364;12.358;2023-02-14T11:28:22;13.57;;;11.00;;
15381;SDS011;7789;51.364;12.358;2023-02-14T11:33:36;13.93;;;11.07;;
15381;SDS011;7789;51.364;12.358;2023-02-14T11:38:41;14.13;;;10.93;;
15381;SDS011;7789;51.364;12.358;2023-02-14T11:43:49;13.70;;;10.70;;
15381;SDS011;7789;51.364;12.358;2023-02-14T11:48:57;14.80;;;10.27;;
15381;SDS011;7789;51.364;12.358;2023-02-14T11:54:02;16.03;;;10.70;;
15381;SDS011;7789;51.364;12.358;2023-02-14T11:59:09;13.13;;;10.83;;
15381;SDS011;7789;51.364;12.358;2023-02-14T12:04:20;12.60;;;9.47;;
15381;SDS011;7789;51.364;12.358;2023-02-14T12:09:31;13.33;;;9.77;;
15381;SDS011;7789;51.364;12.358;2023-02-14T12:14:36;13.30;;;9.60;;
15381;SDS011;7789;51.364;12.358;2023-02-14T12:19:43;12.87;;;10.50;;
15381;SDS011;7789;51.364;12.358;2023-02-14T12:24:51;18.57;;;10.60;;
15381;SDS011;7789;51.364;12.358;2023-02-14T12:30:01;13.20;;;9.27;;
15381;SDS011;7789;51.364;12.358;2023-02-14T12:35:13;10.60;;;8.97;;
15381;SDS011;7789;51.364;12.358;2023-02-14T12:40:20;11.03;;;9.47;;
15381;SDS011;7789;51.364;12.358;2023-02-14T12:45:28;10.70;;;9.00;;
15381;SDS011;7789;51.364;12.358;2023-02-14T12:50:50;9.43;;;8.23;;
15381;SDS011;7789;51.364;12.358;2023-02-14T12:56:05;10.60;;;8.80;;
15381;SDS011;7789;51.364;12.358;2023-02-14T13:01:41;11.30;;;9.57;;
15381;SDS011;7789;51.364;12.358;2023-02-14T13:07:01;11.87;;;8.43;;
15381;SDS011;7789;51.364;12.358;2023-02-14T13:12:14;12.33;;;10.17;;
15381;SDS011;7789;51.364;12.358;2023-02-14T13:17:32;15.83;;;10.03;;
15381;SDS011;7789;51.364;12.358;2023-02-14T13:22:43;13.77;;;8.93;;
15381;SDS011;7789;51.364;12.358;2023-02-14T13:27:48;12.60;;;9.40;;
15381;SDS011;7789;51.364;12.358;2023-02-14T13:32:52;10.43;;;9.33;;
15381;SDS011;7789;51.364;12.358;2023-02-14T13:38:01;13.33;;;10.00;;
15381;SDS011;7789;51.364;12.358;2023-02-14T13:43:09;13.63;;;9.80;;
15381;SDS011;7789;51.364;12.358;2023-02-14T13:48:16;11.90;;;10.07;;
15381;SDS011;7789;51.364;12.358;2023-02-14T13:53:33;11.93;;;9.87;;
15381;SDS011;7789;51.364;12.358;2023-02-14T13:58:44;12.83;;;10.70;;
15381;SDS011;7789;51.364;12.358;2023-02-14T14:03:57;14.47;;;10.87;;
15381;SDS011;7789;51.364;12.358;2023-02-14T14:09:03;12.90;;;10.83;;
15381;SDS011;7789;51.364;12.358;2023-02-14T14:19:40;13.20;;;9.63;;
15381;SDS011;7789;51.364;12.358;2023-02-14T14:24:59;14.33;;;10.57;;
15381;SDS011;7789;51.364;12.358;2023-02-14T14:30:06;13.33;;;9.77;;
15381;SDS011;7789;51.364;12.358;2023-02-14T14:35:20;13.00;;;9.93;;
15381;SDS011;7789;51.364;12.358;2023-02-14T14:40:27;13.33;;;10.03;;
15381;SDS011;7789;51.364;12.358;2023-02-14T14:45:32;12.60;;;10.47;;
15381;SDS011;7789;51.364;12.358;2023-02-14T14:50:36;13.20;;;10.43;;
15381;SDS011;7789;51.364;12.358;2023-02-14T14:55:42;12.93;;;10.20;;
15381;SDS011;7789;51.364;12.358;2023-02-14T15:00:52;13.73;;;9.53;;
15381;SDS011;7789;51.364;12.358;2023-02-14T15:06:03;13.03;;;10.23;;
15381;SDS011;7789;51.364;12.358;2023-02-14T15:11:10;11.13;;;9.77;;
15381;SDS011;7789;51.364;12.358;2023-02-14T15:16:39;12.33;;;10.30;;
15381;SDS011;7789;51.364;12.358;2023-02-14T15:21:48;12.30;;;10.60;;
15381;SDS011;7789;51.364;12.358;2023-02-14T15:26:53;11.77;;;9.40;;
15381;SDS011;7789;51.364;12.358;2023-02-14T15:31:58;12.83;;;10.57;;
15381;SDS011;7789;51.364;12.358;2023-02-14T15:37:05;14.53;;;11.43;;
15381;SDS011;7789;51.364;12.358;2023-02-14T15:42:19;12.97;;;10.90;;
15381;SDS011;7789;51.364;12.358;2023-02-14T15:47:26;17.27;;;11.00;;
15381;SDS011;7789;51.364;12.358;2023-02-14T15:52:30;13.90;;;11.10;;
15381;SDS011;7789;51.364;12.358;2023-02-14T15:57:35;14.93;;;10.70;;
15381;SDS011;7789;51.364;12.358;2023-02-14T16:02:39;14.43;;;10.97;;
15381;SDS011;7789;51.364;12.358;2023-02-14T16:07:53;14.40;;;10.97;;
15381;SDS011;7789;51.364;12.358;2023-02-14T16:13:00;14.20;;;10.83;;
15381;SDS011;7789;51.364;12.358;2023-02-14T16:18:15;13.67;;;11.10;;
15381;SDS011;7789;51.364;12.358;2023-02-14T16:23:23;13.50;;;11.13;;
15381;SDS011;7789;51.364;12.358;2023-02-14T16:28:29;16.40;;;11.67;;
15381;SDS011;7789;51.364;12.358;2023-02-14T16:33:34;16.10;;;11.07;;
15381;SDS011;7789;51.364;12.358;2023-02-14T16:38:40;14.10;;;10.93;;
15381;SDS011;7789;51.364;12.358;2023-02-14T16:43:46;15.20;;;12.23;;
15381;SDS011;7789;51.364;12.358;2023-02-14T16:48:53;15.37;;;11.37;;
15381;SDS011;7789;51.364;12.358;2023-02-14T16:53:57;15.80;;;11.50;;
15381;SDS011;7789;51.364;12.358;2023-02-14T16:59:03;14.63;;;11.30;;
15381;SDS011;7789;51.364;12.358;2023-02-14T17:04:07;17.80;;;12.83;;
15381;SDS011;7789;51.364;12.358;2023-02-14T17:09:13;20.57;;;11.87;;
15381;SDS011;7789;51.364;12.358;2023-02-14T17:14:22;18.90;;;12.33;;
15381;SDS011;7789;51.364;12.358;2023-02-14T17:19:32;17.70;;;13.10;;
15381;SDS011;7789;51.364;12.358;2023-02-14T17:24:36;17.27;;;12.37;;
15381;SDS011;7789;51.364;12.358;2023-02-14T17:29:40;18.67;;;12.23;;
15381;SDS011;7789;51.364;12.358;2023-02-14T17:34:44;19.47;;;13.33;;
15381;SDS011;7789;51.364;12.358;2023-02-14T17:39:49;15.53;;;12.43;;
15381;SDS011;7789;51.364;12.358;2023-02-14T17:44:56;20.77;;;12.93;;
15381;SDS011;7789;51.364;12.358;2023-02-14T17:50:00;17.33;;;13.33;;
15381;SDS011;7789;51.364;12.358;2023-02-14T17:55:04;19.10;;;14.43;;
15381;SDS011;7789;51.364;12.358;2023-02-14T18:00:11;19.07;;;14.03;;
15381;SDS011;7789;51.364;12.358;2023-02-14T18:05:22;19.93;;;14.60;;
15381;SDS011;7789;51.364;12.358;2023-02-14T18:10:26;22.47;;;15.37;;
15381;SDS011;7789;51.364;12.358;2023-02-14T18:15:34;18.60;;;14.77;;
15381;SDS011;7789;51.364;12.358;2023-02-14T18:20:50;22.57;;;15.50;;
15381;SDS011;7789;51.364;12.358;2023-02-14T18:25:55;21.00;;;15.63;;
15381;SDS011;7789;51.364;12.358;2023-02-14T18:31:02;21.23;;;15.87;;
15381;SDS011;7789;51.364;12.358;2023-02-14T18:36:07;22.73;;;16.97;;
15381;SDS011;7789;51.364;12.358;2023-02-14T18:41:14;23.77;;;16.70;;
15381;SDS011;7789;51.364;12.358;2023-02-14T18:46:23;23.17;;;17.23;;
15381;SDS011;7789;51.364;12.358;2023-02-14T18:51:30;25.47;;;18.33;;
15381;SDS011;7789;51.364;12.358;2023-02-14T18:56:37;25.07;;;18.30;;
15381;SDS011;7789;51.364;12.358;2023-02-14T19:01:43;25.43;;;17.73;;
15381;SDS011;7789;51.364;12.358;2023-02-14T19:06:47;24.80;;;17.73;;
15381;SDS011;7789;51.364;12.358;2023-02-14T19:11:51;25.47;;;17.33;;
15381;SDS011;7789;51.364;12.358;2023-02-14T19:16:56;27.17;;;18.43;;
15381;SDS011;7789;51.364;12.358;2023-02-14T19:21:59;25.50;;;17.87;;
15381;SDS011;7789;51.364;12.358;2023-02-14T19:27:03;24.83;;;18.00;;
15381;SDS011;7789;51.364;12.358;2023-02-14T19:32:08;25.43;;;18.57;;
15381;SDS011;7789;51.364;12.358;2023-02-14T19:37:11;25.87;;;17.70;;
15381;SDS011;7789;51.364;12.358;2023-02-14T19:42:15;24.57;;;17.53;;
15381;SDS011;7789;51.364;12.358;2023-02-14T19:47:22;25.67;;;18.73;;
15381;SDS011;7789;51.364;12.358;2023-02-14T19:52:46;29.97;;;19.77;;
15381;SDS011;7789;51.364;12.358;2023-02-14T19:57:49;27.40;;;18.43;;
15381;SDS011;7789;51.364;12.358;2023-02-14T20:02:54;26.73;;;19.07;;
15381;SDS011;7789;51.364;12.358;2023-02-14T20:07:57;28.00;;;18.63;;
15381;SDS011;7789;51.364;12.358;2023-02-14T20:13:03;28.03;;;20.43;;
15381;SDS011;7789;51.364;12.358;2023-02-14T20:18:08;28.57;;;19.77;;
15381;SDS011;7789;51.364;12.358;2023-02-14T20:23:11;28.73;;;20.87;;
15381;SDS011;7789;51.364;12.358;2023-02-14T20:28:14;31.57;;;20.83;;
15381;SDS011;7789;51.364;12.358;2023-02-14T20:33:19;27.00;;;18.93;;
15381;SDS011;7789;51.364;12.358;2023-02-14T20:38:23;26.77;;;18.83;;
15381;SDS011;7789;51.364;12.358;2023-02-14T20:43:30;29.77;;;19.50;;
15381;SDS011;7789;51.364;12.358;2023-02-14T20:48:35;31.37;;;21.17;;
15381;SDS011;7789;51.364;12.358;2023-02-14T20:53:38;30.60;;;20.70;;
15381;SDS011;7789;51.364;12.358;2023-02-14T20:58:42;29.03;;;19.80;;
15381;SDS011;7789;51.364;12.358;2023-02-14T21:03:48;29.80;;;19.63;;
15381;SDS011;7789;51.364;12.358;2023-02-14T21:08:52;30.90;;;21.10;;
15381;SDS011;7789;51.364;12.358;2023-02-14T21:13:56;28.63;;;20.30;;
15381;SDS011;7789;51.364;12.358;2023-02-14T21:19:02;30.33;;;20.43;;
15381;SDS011;7789;51.364;12.358;2023-02-14T21:24:07;30.77;;;19.50;;
15381;SDS011;7789;51.364;12.358;2023-02-14T21:29:12;30.23;;;20.60;;
15381;SDS011;7789;51.364;12.358;2023-02-14T21:34:17;33.87;;;22.37;;
15381;SDS011;7789;51.364;12.358;2023-02-14T21:39:21;31.00;;;20.57;;
15381;SDS011;7789;51.364;12.358;2023-02-14T21:44:27;32.70;;;20.87;;
15381;SDS011;7789;51.364;12.358;2023-02-14T21:49:46;32.43;;;19.77;;
15381;SDS011;7789;51.364;12.358;2023-02-14T21:55:06;32.73;;;20.50;;
15381;SDS011;7789;51.364;12.358;2023-02-14T22:00:10;31.83;;;21.17;;
15381;SDS011;7789;51.364;12.358;2023-02-14T22:05:24;32.37;;;20.57;;
15381;SDS011;7789;51.364;12.358;2023-02-14T22:10:37;31.67;;;21.53;;
15381;SDS011;7789;51.364;12.358;2023-02-14T22:15:41;38.57;;;23.10;;
15381;SDS011;7789;51.364;12.358;2023-02-14T22:20:46;32.63;;;22.40;;
15381;SDS011;7789;51.364;12.358;2023-02-14T22:25:49;31.07;;;20.87;;
15381;SDS011;7789;51.364;12.358;2023-02-14T22:30:53;32.10;;;21.10;;
15381;SDS011;7789;51.364;12.358;2023-02-14T22:35:57;28.27;;;19.33;;
15381;SDS011;7789;51.364;12.358;2023-02-14T22:41:05;33.20;;;21.37;;
15381;SDS011;7789;51.364;12.358;2023-02-14T22:46:10;28.63;;;19.60;;
15381;SDS011;7789;51.364;12.358;2023-02-14T22:51:19;30.37;;;20.20;;
15381;SDS011;7789;51.364;12.358;2023-02-14T22:56:23;32.83;;;21.43;;
15381;SDS011;7789;51.364;12.358;2023-02-14T23:01:29;34.80;;;21.77;;
15381;SDS011;7789;51.364;12.358;2023-02-14T23:06:35;34.93;;;22.63;;
15381;SDS011;7789;51.364;12.358;2023-02-14T23:11:39;35.57;;;22.97;;
15381;SDS011;7789;51.364;12.358;2023-02-14T23:16:44;36.57;;;24.13;;
15381;SDS011;7789;51.364;12.358;2023-02-14T23:22:07;32.40;;;21.23;;
15381;SDS011;7789;51.364;12.358;2023-02-14T23:27:11;36.27;;;22.73;;
15381;SDS011;7789;51.364;12.358;2023-02-14T23:32:15;36.70;;;23.33;;
15381;SDS011;7789;51.364;12.358;2023-02-14T23:37:20;40.13;;;24.07;;
15381;SDS011;7789;51.364;12.358;2023-02-14T23:42:23;33.90;;;21.87;;
15381;SDS011;7789;51.364;12.358;2023-02-14T23:47:27;39.33;;;23.67;;
15381;SDS011;7789;51.364;12.358;2023-02-14T23:52:31;42.67;;;24.23;;
15381;SDS011;7789;51.364;12.358;2023-02-14T23:57:36;39.47;;;23.60;;
